sensor_id;sensor_type;location;lat;lon;timestamp;P1;durP1;ratioP1;P2;durP2;ratioP2
63784;SDS011;49927;48.146;11.420;2022-09-03T00:01:24;4.03;;;2.10;;
63784;SDS011;49927;48.146;11.420;2022-09-03T00:03:56;4.25;;;2.33;;
63784;SDS011;49927;48.146;11.420;2022-09-03T00:06:24;4.93;;;2.20;;
63784;SDS011;49927;48.146;11.420;2022-09-03T00:08:54;3.63;;;2.63;;
63784;SDS011;49927;48.146;11.420;2022-09-03T00:11:23;4.35;;;3.10;;
63784;SDS011;49927;48.146;11.420;2022-09-03T00:13:50;4.00;;;2.80;;
63784;SDS011;49927;48.146;11.420;2022-09-03T00:16:20;5.68;;;2.70;;
63784;SDS011;49927;48.146;11.420;2022-09-03T00:18:48;4.43;;;2.95;;
63784;SDS011;49927;48.146;11.420;2022-09-03T00:21:20;3.47;;;2.55;;
63784;SDS011;49927;48.146;11.420;2022-09-03T00:23:54;4.03;;;2.70;;
63784;SDS011;49927;48.146;11.420;2022-09-03T00:26:21;3.58;;;2.60;;
63784;SDS011;49927;48.146;11.420;2022-09-03T00:28:53;2.55;;;2.22;;
63784;SDS011;49927;48.146;11.420;2022-09-03T00:31:21;4.70;;;2.40;;
63784;SDS011;49927;48.146;11.420;2022-09-03T00:33:50;2.92;;;2.15;;
63784;SDS011;49927;48.146;11.420;2022-09-03T00:36:19;3.05;;;2.03;;
63784;SDS011;49927;48.146;11.420;2022-09-03T00:38:46;4.18;;;2.20;;
63784;SDS011;49927;48.146;11.420;2022-09-03T00:41:16;3.95;;;2.45;;
63784;SDS011;49927;48.146;11.420;2022-09-03T00:43:54;2.35;;;2.15;;
63784;SDS011;49927;48.146;11.420;2022-09-03T00:46:29;3.03;;;2.42;;
63784;SDS011;49927;48.146;11.420;2022-09-03T00:49:01;3.65;;;2.50;;
63784;SDS011;49927;48.146;11.420;2022-09-03T00:51:40;5.03;;;2.58;;
63784;SDS011;49927;48.146;11.420;2022-09-03T00:54:10;2.63;;;2.20;;
63784;SDS011;49927;48.146;11.420;2022-09-03T00:56:43;4.15;;;2.58;;
63784;SDS011;49927;48.146;11.420;2022-09-03T00:59:15;4.13;;;2.65;;
63784;SDS011;49927;48.146;11.420;2022-09-03T01:01:48;3.05;;;2.75;;
63784;SDS011;49927;48.146;11.420;2022-09-03T01:04:23;3.00;;;2.60;;
63784;SDS011;49927;48.146;11.420;2022-09-03T01:06:55;4.25;;;2.55;;
63784;SDS011;49927;48.146;11.420;2022-09-03T01:09:27;6.90;;;2.65;;
63784;SDS011;49927;48.146;11.420;2022-09-03T01:11:59;2.78;;;2.20;;
63784;SDS011;49927;48.146;11.420;2022-09-03T01:14:34;2.53;;;2.30;;
63784;SDS011;49927;48.146;11.420;2022-09-03T01:17:07;4.57;;;2.60;;
63784;SDS011;49927;48.146;11.420;2022-09-03T01:19:42;2.97;;;2.63;;
63784;SDS011;49927;48.146;11.420;2022-09-03T01:22:27;5.18;;;2.35;;
63784;SDS011;49927;48.146;11.420;2022-09-03T01:25:11;2.85;;;2.58;;
63784;SDS011;49927;48.146;11.420;2022-09-03T01:27:43;4.25;;;2.40;;
63784;SDS011;49927;48.146;11.420;2022-09-03T01:30:13;4.45;;;2.63;;
63784;SDS011;49927;48.146;11.420;2022-09-03T01:32:43;2.65;;;2.40;;
63784;SDS011;49927;48.146;11.420;2022-09-03T01:35:13;3.58;;;2.80;;
63784;SDS011;49927;48.146;11.420;2022-09-03T01:37:49;2.38;;;2.17;;
63784;SDS011;49927;48.146;11.420;2022-09-03T01:40:27;2.33;;;2.13;;
63784;SDS011;49927;48.146;11.420;2022-09-03T01:43:02;5.53;;;2.20;;
63784;SDS011;49927;48.146;11.420;2022-09-03T01:45:39;5.30;;;2.65;;
63784;SDS011;49927;48.146;11.420;2022-09-03T01:48:13;2.92;;;2.63;;
63784;SDS011;49927;48.146;11.420;2022-09-03T01:50:47;3.22;;;2.83;;
63784;SDS011;49927;48.146;11.420;2022-09-03T01:53:18;3.35;;;2.90;;
63784;SDS011;49927;48.146;11.420;2022-09-03T01:55:55;4.45;;;2.65;;
63784;SDS011;49927;48.146;11.420;2022-09-03T01:58:26;4.22;;;3.10;;
63784;SDS011;49927;48.146;11.420;2022-09-03T02:00:56;4.40;;;2.97;;
63784;SDS011;49927;48.146;11.420;2022-09-03T02:03:24;4.47;;;2.80;;
63784;SDS011;49927;48.146;11.420;2022-09-03T02:05:50;3.85;;;2.60;;
63784;SDS011;49927;48.146;11.420;2022-09-03T02:08:16;4.40;;;2.60;;
63784;SDS011;49927;48.146;11.420;2022-09-03T02:10:42;3.45;;;2.80;;
63784;SDS011;49927;48.146;11.420;2022-09-03T02:13:09;4.00;;;2.63;;
63784;SDS011;49927;48.146;11.420;2022-09-03T02:15:39;3.53;;;2.85;;
63784;SDS011;49927;48.146;11.420;2022-09-03T02:18:09;4.38;;;3.25;;
63784;SDS011;49927;48.146;11.420;2022-09-03T02:20:37;5.15;;;3.42;;
63784;SDS011;49927;48.146;11.420;2022-09-03T02:23:03;3.63;;;2.90;;
63784;SDS011;49927;48.146;11.420;2022-09-03T02:25:29;3.10;;;2.63;;
63784;SDS011;49927;48.146;11.420;2022-09-03T02:27:57;4.95;;;3.35;;
63784;SDS011;49927;48.146;11.420;2022-09-03T02:30:22;3.88;;;3.45;;
63784;SDS011;49927;48.146;11.420;2022-09-03T02:32:48;7.97;;;3.45;;
63784;SDS011;49927;48.146;11.420;2022-09-03T02:35:15;4.85;;;2.90;;
63784;SDS011;49927;48.146;11.420;2022-09-03T02:37:40;3.63;;;3.15;;
63784;SDS011;49927;48.146;11.420;2022-09-03T02:40:06;3.28;;;2.97;;
63784;SDS011;49927;48.146;11.420;2022-09-03T02:42:32;6.22;;;3.22;;
63784;SDS011;49927;48.146;11.420;2022-09-03T02:44:59;4.28;;;3.13;;
63784;SDS011;49927;48.146;11.420;2022-09-03T02:47:29;5.38;;;3.30;;
63784;SDS011;49927;48.146;11.420;2022-09-03T02:49:55;6.07;;;3.20;;
63784;SDS011;49927;48.146;11.420;2022-09-03T02:52:22;4.07;;;3.33;;
63784;SDS011;49927;48.146;11.420;2022-09-03T02:54:48;3.78;;;2.90;;
63784;SDS011;49927;48.146;11.420;2022-09-03T02:57:14;4.20;;;2.85;;
63784;SDS011;49927;48.146;11.420;2022-09-03T02:59:40;5.00;;;3.10;;
63784;SDS011;49927;48.146;11.420;2022-09-03T03:02:06;3.97;;;3.00;;
63784;SDS011;49927;48.146;11.420;2022-09-03T03:04:32;3.78;;;3.10;;
63784;SDS011;49927;48.146;11.420;2022-09-03T03:06:57;24.30;;;3.95;;
63784;SDS011;49927;48.146;11.420;2022-09-03T03:09:24;7.90;;;3.45;;
63784;SDS011;49927;48.146;11.420;2022-09-03T03:11:51;8.98;;;3.35;;
63784;SDS011;49927;48.146;11.420;2022-09-03T03:14:17;3.90;;;3.05;;
63784;SDS011;49927;48.146;11.420;2022-09-03T03:16:42;5.90;;;4.05;;
63784;SDS011;49927;48.146;11.420;2022-09-03T03:19:08;5.80;;;3.90;;
63784;SDS011;49927;48.146;11.420;2022-09-03T03:21:33;5.30;;;3.33;;
63784;SDS011;49927;48.146;11.420;2022-09-03T03:23:59;5.93;;;3.72;;
63784;SDS011;49927;48.146;11.420;2022-09-03T03:26:26;4.65;;;3.72;;
63784;SDS011;49927;48.146;11.420;2022-09-03T03:28:54;5.63;;;3.70;;
63784;SDS011;49927;48.146;11.420;2022-09-03T03:31:20;3.65;;;3.33;;
63784;SDS011;49927;48.146;11.420;2022-09-03T03:33:49;6.28;;;3.50;;
63784;SDS011;49927;48.146;11.420;2022-09-03T03:36:15;5.25;;;3.40;;
63784;SDS011;49927;48.146;11.420;2022-09-03T03:38:41;5.82;;;3.33;;
63784;SDS011;49927;48.146;11.420;2022-09-03T03:41:07;4.75;;;4.28;;
63784;SDS011;49927;48.146;11.420;2022-09-03T03:43:35;3.90;;;3.50;;
63784;SDS011;49927;48.146;11.420;2022-09-03T03:46:01;6.32;;;3.70;;
63784;SDS011;49927;48.146;11.420;2022-09-03T03:48:26;6.18;;;4.05;;
63784;SDS011;49927;48.146;11.420;2022-09-03T03:50:52;4.65;;;3.58;;
63784;SDS011;49927;48.146;11.420;2022-09-03T03:53:18;4.40;;;3.97;;
63784;SDS011;49927;48.146;11.420;2022-09-03T03:55:52;4.18;;;3.78;;
63784;SDS011;49927;48.146;11.420;2022-09-03T03:58:18;4.93;;;3.88;;
63784;SDS011;49927;48.146;11.420;2022-09-03T04:00:45;4.93;;;4.10;;
63784;SDS011;49927;48.146;11.420;2022-09-03T04:03:11;6.55;;;3.83;;
63784;SDS011;49927;48.146;11.420;2022-09-03T04:05:36;4.25;;;3.85;;
63784;SDS011;49927;48.146;11.420;2022-09-03T04:08:02;7.35;;;4.13;;
63784;SDS011;49927;48.146;11.420;2022-09-03T04:10:28;4.60;;;4.20;;
63784;SDS011;49927;48.146;11.420;2022-09-03T04:12:53;6.90;;;3.92;;
63784;SDS011;49927;48.146;11.420;2022-09-03T04:15:19;5.55;;;4.38;;
63784;SDS011;49927;48.146;11.420;2022-09-03T04:17:45;5.55;;;4.28;;
63784;SDS011;49927;48.146;11.420;2022-09-03T04:20:11;6.07;;;4.13;;
63784;SDS011;49927;48.146;11.420;2022-09-03T04:22:36;5.40;;;4.05;;
63784;SDS011;49927;48.146;11.420;2022-09-03T04:25:02;5.57;;;3.78;;
63784;SDS011;49927;48.146;11.420;2022-09-03T04:27:28;5.07;;;3.95;;
63784;SDS011;49927;48.146;11.420;2022-09-03T04:29:54;6.65;;;4.22;;
63784;SDS011;49927;48.146;11.420;2022-09-03T04:32:19;6.53;;;4.20;;
63784;SDS011;49927;48.146;11.420;2022-09-03T04:34:46;4.63;;;3.92;;
63784;SDS011;49927;48.146;11.420;2022-09-03T04:37:11;4.75;;;4.25;;
63784;SDS011;49927;48.146;11.420;2022-09-03T04:39:37;4.90;;;4.20;;
63784;SDS011;49927;48.146;11.420;2022-09-03T04:42:03;5.03;;;4.45;;
63784;SDS011;49927;48.146;11.420;2022-09-03T04:44:28;5.03;;;4.15;;
63784;SDS011;49927;48.146;11.420;2022-09-03T04:46:54;6.10;;;4.35;;
63784;SDS011;49927;48.146;11.420;2022-09-03T04:49:19;3.97;;;3.58;;
63784;SDS011;49927;48.146;11.420;2022-09-03T04:51:46;5.38;;;4.45;;
63784;SDS011;49927;48.146;11.420;2022-09-03T04:54:12;6.38;;;4.32;;
63784;SDS011;49927;48.146;11.420;2022-09-03T04:56:37;5.13;;;3.95;;
63784;SDS011;49927;48.146;11.420;2022-09-03T04:59:03;4.88;;;3.85;;
63784;SDS011;49927;48.146;11.420;2022-09-03T05:01:31;4.68;;;3.75;;
63784;SDS011;49927;48.146;11.420;2022-09-03T05:03:57;4.80;;;4.28;;
63784;SDS011;49927;48.146;11.420;2022-09-03T05:06:23;6.78;;;4.97;;
63784;SDS011;49927;48.146;11.420;2022-09-03T05:08:51;4.88;;;3.50;;
63784;SDS011;49927;48.146;11.420;2022-09-03T05:11:17;7.25;;;3.90;;
63784;SDS011;49927;48.146;11.420;2022-09-03T05:13:45;4.50;;;3.85;;
63784;SDS011;49927;48.146;11.420;2022-09-03T05:16:11;9.93;;;4.03;;
63784;SDS011;49927;48.146;11.420;2022-09-03T05:18:37;7.03;;;4.18;;
63784;SDS011;49927;48.146;11.420;2022-09-03T05:21:03;5.50;;;3.78;;
63784;SDS011;49927;48.146;11.420;2022-09-03T05:23:30;4.38;;;3.95;;
63784;SDS011;49927;48.146;11.420;2022-09-03T05:25:58;4.68;;;3.80;;
63784;SDS011;49927;48.146;11.420;2022-09-03T05:28:25;5.80;;;4.03;;
63784;SDS011;49927;48.146;11.420;2022-09-03T05:30:56;5.00;;;4.15;;
63784;SDS011;49927;48.146;11.420;2022-09-03T05:33:22;4.63;;;4.03;;
63784;SDS011;49927;48.146;11.420;2022-09-03T05:35:48;3.85;;;3.45;;
63784;SDS011;49927;48.146;11.420;2022-09-03T05:38:13;5.28;;;3.85;;
63784;SDS011;49927;48.146;11.420;2022-09-03T05:40:39;5.57;;;3.92;;
63784;SDS011;49927;48.146;11.420;2022-09-03T05:43:06;4.30;;;3.88;;
63784;SDS011;49927;48.146;11.420;2022-09-03T05:45:31;4.15;;;3.78;;
63784;SDS011;49927;48.146;11.420;2022-09-03T05:47:58;5.38;;;4.47;;
63784;SDS011;49927;48.146;11.420;2022-09-03T05:50:24;4.32;;;3.90;;
63784;SDS011;49927;48.146;11.420;2022-09-03T05:52:49;6.63;;;4.10;;
63784;SDS011;49927;48.146;11.420;2022-09-03T05:55:15;4.07;;;3.72;;
63784;SDS011;49927;48.146;11.420;2022-09-03T05:57:41;7.30;;;4.10;;
63784;SDS011;49927;48.146;11.420;2022-09-03T06:00:09;4.93;;;4.22;;
63784;SDS011;49927;48.146;11.420;2022-09-03T06:02:35;4.15;;;3.85;;
63784;SDS011;49927;48.146;11.420;2022-09-03T06:05:00;4.40;;;3.97;;
63784;SDS011;49927;48.146;11.420;2022-09-03T06:07:26;3.88;;;3.58;;
63784;SDS011;49927;48.146;11.420;2022-09-03T06:09:51;5.18;;;3.90;;
63784;SDS011;49927;48.146;11.420;2022-09-03T06:12:17;5.68;;;4.65;;
63784;SDS011;49927;48.146;11.420;2022-09-03T06:14:42;5.15;;;4.00;;
63784;SDS011;49927;48.146;11.420;2022-09-03T06:17:09;6.18;;;4.50;;
63784;SDS011;49927;48.146;11.420;2022-09-03T06:19:35;5.70;;;4.40;;
63784;SDS011;49927;48.146;11.420;2022-09-03T06:22:00;5.25;;;3.90;;
63784;SDS011;49927;48.146;11.420;2022-09-03T06:24:25;6.03;;;3.88;;
63784;SDS011;49927;48.146;11.420;2022-09-03T06:26:51;5.15;;;4.25;;
63784;SDS011;49927;48.146;11.420;2022-09-03T06:29:16;5.22;;;4.43;;
63784;SDS011;49927;48.146;11.420;2022-09-03T06:31:42;4.20;;;3.80;;
63784;SDS011;49927;48.146;11.420;2022-09-03T06:34:09;4.22;;;3.67;;
63784;SDS011;49927;48.146;11.420;2022-09-03T06:36:34;4.07;;;3.67;;
63784;SDS011;49927;48.146;11.420;2022-09-03T06:39:00;6.72;;;4.05;;
63784;SDS011;49927;48.146;11.420;2022-09-03T06:41:26;5.13;;;4.28;;
63784;SDS011;49927;48.146;11.420;2022-09-03T06:43:53;8.38;;;4.82;;
63784;SDS011;49927;48.146;11.420;2022-09-03T06:46:21;7.82;;;4.50;;
63784;SDS011;49927;48.146;11.420;2022-09-03T06:48:47;4.60;;;4.00;;
63784;SDS011;49927;48.146;11.420;2022-09-03T06:51:15;4.72;;;4.22;;
63784;SDS011;49927;48.146;11.420;2022-09-03T06:53:42;7.38;;;4.85;;
63784;SDS011;49927;48.146;11.420;2022-09-03T06:56:09;7.22;;;4.95;;
63784;SDS011;49927;48.146;11.420;2022-09-03T06:58:36;7.15;;;4.78;;
63784;SDS011;49927;48.146;11.420;2022-09-03T07:01:03;6.82;;;5.13;;
63784;SDS011;49927;48.146;11.420;2022-09-03T07:03:29;6.25;;;3.90;;
63784;SDS011;49927;48.146;11.420;2022-09-03T07:05:58;6.97;;;4.45;;
63784;SDS011;49927;48.146;11.420;2022-09-03T07:08:26;4.55;;;3.72;;
63784;SDS011;49927;48.146;11.420;2022-09-03T07:10:51;7.13;;;4.25;;
63784;SDS011;49927;48.146;11.420;2022-09-03T07:13:17;5.00;;;4.32;;
63784;SDS011;49927;48.146;11.420;2022-09-03T07:15:42;4.55;;;4.15;;
63784;SDS011;49927;48.146;11.420;2022-09-03T07:18:08;6.32;;;4.55;;
63784;SDS011;49927;48.146;11.420;2022-09-03T07:20:33;6.25;;;4.47;;
63784;SDS011;49927;48.146;11.420;2022-09-03T07:22:59;5.05;;;4.45;;
63784;SDS011;49927;48.146;11.420;2022-09-03T07:25:26;5.38;;;4.05;;
63784;SDS011;49927;48.146;11.420;2022-09-03T07:27:51;4.18;;;3.85;;
63784;SDS011;49927;48.146;11.420;2022-09-03T07:30:17;6.75;;;4.13;;
63784;SDS011;49927;48.146;11.420;2022-09-03T07:32:42;6.45;;;4.00;;
63784;SDS011;49927;48.146;11.420;2022-09-03T07:35:08;5.93;;;4.40;;
63784;SDS011;49927;48.146;11.420;2022-09-03T07:37:33;8.23;;;4.80;;
63784;SDS011;49927;48.146;11.420;2022-09-03T07:39:59;7.55;;;4.63;;
63784;SDS011;49927;48.146;11.420;2022-09-03T07:42:26;4.72;;;4.10;;
63784;SDS011;49927;48.146;11.420;2022-09-03T07:44:51;6.80;;;4.72;;
63784;SDS011;49927;48.146;11.420;2022-09-03T07:47:17;6.15;;;4.43;;
63784;SDS011;49927;48.146;11.420;2022-09-03T07:49:42;5.05;;;3.90;;
63784;SDS011;49927;48.146;11.420;2022-09-03T07:52:08;5.45;;;3.50;;
63784;SDS011;49927;48.146;11.420;2022-09-03T07:54:33;4.15;;;3.55;;
63784;SDS011;49927;48.146;11.420;2022-09-03T07:56:59;3.78;;;3.40;;
63784;SDS011;49927;48.146;11.420;2022-09-03T07:59:25;4.22;;;3.83;;
63784;SDS011;49927;48.146;11.420;2022-09-03T08:01:51;5.43;;;3.38;;
63784;SDS011;49927;48.146;11.420;2022-09-03T08:04:16;4.60;;;3.58;;
63784;SDS011;49927;48.146;11.420;2022-09-03T08:06:42;3.20;;;2.90;;
63784;SDS011;49927;48.146;11.420;2022-09-03T08:09:08;4.88;;;3.60;;
63784;SDS011;49927;48.146;11.420;2022-09-03T08:11:35;4.65;;;3.22;;
63784;SDS011;49927;48.146;11.420;2022-09-03T08:14:02;3.58;;;3.22;;
63784;SDS011;49927;48.146;11.420;2022-09-03T08:16:31;5.55;;;3.67;;
63784;SDS011;49927;48.146;11.420;2022-09-03T08:18:57;5.05;;;3.95;;
63784;SDS011;49927;48.146;11.420;2022-09-03T08:21:23;4.15;;;3.75;;
63784;SDS011;49927;48.146;11.420;2022-09-03T08:23:50;7.47;;;3.90;;
63784;SDS011;49927;48.146;11.420;2022-09-03T08:26:17;5.70;;;3.60;;
63784;SDS011;49927;48.146;11.420;2022-09-03T08:28:44;4.15;;;3.63;;
63784;SDS011;49927;48.146;11.420;2022-09-03T08:31:10;6.50;;;3.90;;
63784;SDS011;49927;48.146;11.420;2022-09-03T08:33:38;5.55;;;3.25;;
63784;SDS011;49927;48.146;11.420;2022-09-03T08:36:05;5.40;;;3.92;;
63784;SDS011;49927;48.146;11.420;2022-09-03T08:38:31;6.32;;;3.42;;
63784;SDS011;49927;48.146;11.420;2022-09-03T08:41:01;7.28;;;4.10;;
63784;SDS011;49927;48.146;11.420;2022-09-03T08:43:28;7.25;;;4.32;;
63784;SDS011;49927;48.146;11.420;2022-09-03T08:45:54;5.20;;;4.13;;
63784;SDS011;49927;48.146;11.420;2022-09-03T08:48:20;5.15;;;4.22;;
63784;SDS011;49927;48.146;11.420;2022-09-03T08:50:49;7.72;;;4.20;;
63784;SDS011;49927;48.146;11.420;2022-09-03T08:53:16;4.22;;;3.80;;
63784;SDS011;49927;48.146;11.420;2022-09-03T08:55:46;4.05;;;3.75;;
63784;SDS011;49927;48.146;11.420;2022-09-03T08:58:15;4.30;;;3.55;;
63784;SDS011;49927;48.146;11.420;2022-09-03T09:00:46;3.00;;;2.70;;
63784;SDS011;49927;48.146;11.420;2022-09-03T09:03:27;4.75;;;3.38;;
63784;SDS011;49927;48.146;11.420;2022-09-03T09:06:07;2.80;;;2.60;;
63784;SDS011;49927;48.146;11.420;2022-09-03T09:08:37;3.88;;;3.08;;
63784;SDS011;49927;48.146;11.420;2022-09-03T09:11:09;3.30;;;2.65;;
63784;SDS011;49927;48.146;11.420;2022-09-03T09:13:41;3.60;;;3.30;;
63784;SDS011;49927;48.146;11.420;2022-09-03T09:16:12;5.13;;;4.55;;
63784;SDS011;49927;48.146;11.420;2022-09-03T09:18:44;3.70;;;3.35;;
63784;SDS011;49927;48.146;11.420;2022-09-03T09:21:17;3.15;;;2.40;;
63784;SDS011;49927;48.146;11.420;2022-09-03T09:23:45;5.50;;;2.72;;
63784;SDS011;49927;48.146;11.420;2022-09-03T09:26:12;3.00;;;2.75;;
63784;SDS011;49927;48.146;11.420;2022-09-03T09:28:39;3.95;;;2.83;;
63784;SDS011;49927;48.146;11.420;2022-09-03T09:31:06;2.55;;;2.35;;
63784;SDS011;49927;48.146;11.420;2022-09-03T09:33:34;2.80;;;2.60;;
63784;SDS011;49927;48.146;11.420;2022-09-03T09:36:00;3.22;;;2.58;;
63784;SDS011;49927;48.146;11.420;2022-09-03T09:38:30;4.40;;;3.00;;
63784;SDS011;49927;48.146;11.420;2022-09-03T09:41:06;2.80;;;1.98;;
63784;SDS011;49927;48.146;11.420;2022-09-03T09:43:33;3.13;;;2.28;;
63784;SDS011;49927;48.146;11.420;2022-09-03T09:46:04;2.63;;;2.35;;
63784;SDS011;49927;48.146;11.420;2022-09-03T09:48:31;2.08;;;1.88;;
63784;SDS011;49927;48.146;11.420;2022-09-03T09:51:02;2.88;;;2.15;;
63784;SDS011;49927;48.146;11.420;2022-09-03T09:53:30;1.90;;;1.70;;
63784;SDS011;49927;48.146;11.420;2022-09-03T09:55:56;2.90;;;1.95;;
63784;SDS011;49927;48.146;11.420;2022-09-03T09:58:23;2.10;;;2.00;;
63784;SDS011;49927;48.146;11.420;2022-09-03T10:00:55;2.20;;;2.00;;
63784;SDS011;49927;48.146;11.420;2022-09-03T10:03:22;3.08;;;1.83;;
63784;SDS011;49927;48.146;11.420;2022-09-03T10:05:55;2.33;;;2.00;;
63784;SDS011;49927;48.146;11.420;2022-09-03T10:08:25;3.00;;;2.53;;
63784;SDS011;49927;48.146;11.420;2022-09-03T10:10:52;2.60;;;2.13;;
63784;SDS011;49927;48.146;11.420;2022-09-03T10:13:18;1.85;;;1.75;;
63784;SDS011;49927;48.146;11.420;2022-09-03T10:15:47;2.42;;;1.90;;
63784;SDS011;49927;48.146;11.420;2022-09-03T10:18:16;1.90;;;1.80;;
63784;SDS011;49927;48.146;11.420;2022-09-03T10:20:44;1.70;;;1.60;;
63784;SDS011;49927;48.146;11.420;2022-09-03T10:23:14;2.00;;;1.80;;
63784;SDS011;49927;48.146;11.420;2022-09-03T10:25:54;2.28;;;1.70;;
63784;SDS011;49927;48.146;11.420;2022-09-03T10:28:25;2.20;;;2.00;;
63784;SDS011;49927;48.146;11.420;2022-09-03T10:30:57;2.13;;;1.75;;
63784;SDS011;49927;48.146;11.420;2022-09-03T10:33:31;1.80;;;1.70;;
63784;SDS011;49927;48.146;11.420;2022-09-03T10:36:02;2.20;;;1.83;;
63784;SDS011;49927;48.146;11.420;2022-09-03T10:38:34;2.07;;;1.60;;
63784;SDS011;49927;48.146;11.420;2022-09-03T10:41:04;1.65;;;1.55;;
63784;SDS011;49927;48.146;11.420;2022-09-03T10:43:48;2.63;;;2.03;;
63784;SDS011;49927;48.146;11.420;2022-09-03T10:46:25;1.40;;;1.30;;
63784;SDS011;49927;48.146;11.420;2022-09-03T10:49:06;1.58;;;1.48;;
63784;SDS011;49927;48.146;11.420;2022-09-03T10:51:38;1.88;;;1.77;;
63784;SDS011;49927;48.146;11.420;2022-09-03T10:54:10;2.20;;;1.58;;
63784;SDS011;49927;48.146;11.420;2022-09-03T10:56:49;1.70;;;1.40;;
63784;SDS011;49927;48.146;11.420;2022-09-03T10:59:24;2.22;;;1.40;;
63784;SDS011;49927;48.146;11.420;2022-09-03T11:01:57;2.47;;;1.25;;
63784;SDS011;49927;48.146;11.420;2022-09-03T11:04:27;2.33;;;2.10;;
63784;SDS011;49927;48.146;11.420;2022-09-03T11:06:56;1.50;;;1.40;;
63784;SDS011;49927;48.146;11.420;2022-09-03T11:09:23;2.15;;;1.55;;
63784;SDS011;49927;48.146;11.420;2022-09-03T11:11:54;1.83;;;1.73;;
63784;SDS011;49927;48.146;11.420;2022-09-03T11:14:24;1.90;;;1.75;;
63784;SDS011;49927;48.146;11.420;2022-09-03T11:16:58;1.70;;;1.50;;
63784;SDS011;49927;48.146;11.420;2022-09-03T11:19:29;1.95;;;1.55;;
63784;SDS011;49927;48.146;11.420;2022-09-03T11:21:58;1.80;;;1.67;;
63784;SDS011;49927;48.146;11.420;2022-09-03T11:24:24;1.80;;;1.70;;
63784;SDS011;49927;48.146;11.420;2022-09-03T11:26:52;1.50;;;1.40;;
63784;SDS011;49927;48.146;11.420;2022-09-03T11:29:23;1.35;;;1.25;;
63784;SDS011;49927;48.146;11.420;2022-09-03T11:31:56;1.58;;;1.40;;
63784;SDS011;49927;48.146;11.420;2022-09-03T11:34:26;1.70;;;1.40;;
63784;SDS011;49927;48.146;11.420;2022-09-03T11:37:06;1.45;;;1.35;;
63784;SDS011;49927;48.146;11.420;2022-09-03T11:39:40;1.40;;;1.30;;
63784;SDS011;49927;48.146;11.420;2022-09-03T11:42:09;1.40;;;1.30;;
63784;SDS011;49927;48.146;11.420;2022-09-03T11:44:36;1.30;;;1.20;;
63784;SDS011;49927;48.146;11.420;2022-09-03T11:47:12;1.90;;;1.50;;
63784;SDS011;49927;48.146;11.420;2022-09-03T11:49:43;3.38;;;1.58;;
63784;SDS011;49927;48.146;11.420;2022-09-03T11:52:09;1.40;;;1.30;;
63784;SDS011;49927;48.146;11.420;2022-09-03T11:54:41;2.15;;;1.70;;
63784;SDS011;49927;48.146;11.420;2022-09-03T11:57:10;1.27;;;1.17;;
63784;SDS011;49927;48.146;11.420;2022-09-03T11:59:38;1.40;;;1.30;;
63784;SDS011;49927;48.146;11.420;2022-09-03T12:02:06;1.40;;;1.30;;
63784;SDS011;49927;48.146;11.420;2022-09-03T12:04:38;2.38;;;1.30;;
63784;SDS011;49927;48.146;11.420;2022-09-03T12:07:10;1.60;;;1.35;;
63784;SDS011;49927;48.146;11.420;2022-09-03T12:12:44;1.45;;;1.35;;
63784;SDS011;49927;48.146;11.420;2022-09-03T12:15:16;1.83;;;1.50;;
63784;SDS011;49927;48.146;11.420;2022-09-03T12:17:55;1.60;;;1.50;;
63784;SDS011;49927;48.146;11.420;2022-09-03T12:20:26;1.80;;;1.42;;
63784;SDS011;49927;48.146;11.420;2022-09-03T12:22:52;2.65;;;1.65;;
63784;SDS011;49927;48.146;11.420;2022-09-03T12:25:17;1.65;;;1.20;;
63784;SDS011;49927;48.146;11.420;2022-09-03T12:27:44;1.40;;;1.30;;
63784;SDS011;49927;48.146;11.420;2022-09-03T12:30:13;2.13;;;1.40;;
63784;SDS011;49927;48.146;11.420;2022-09-03T12:32:40;1.20;;;1.15;;
63784;SDS011;49927;48.146;11.420;2022-09-03T12:35:10;1.55;;;1.45;;
63784;SDS011;49927;48.146;11.420;2022-09-03T12:37:36;1.25;;;1.15;;
63784;SDS011;49927;48.146;11.420;2022-09-03T12:40:02;1.63;;;1.52;;
63784;SDS011;49927;48.146;11.420;2022-09-03T12:42:28;1.75;;;1.33;;
63784;SDS011;49927;48.146;11.420;2022-09-03T12:45:03;1.88;;;1.40;;
63784;SDS011;49927;48.146;11.420;2022-09-03T12:47:30;1.98;;;1.40;;
63784;SDS011;49927;48.146;11.420;2022-09-03T12:50:04;2.38;;;1.20;;
63784;SDS011;49927;48.146;11.420;2022-09-03T12:52:31;1.05;;;1.05;;
63784;SDS011;49927;48.146;11.420;2022-09-03T12:55:00;3.97;;;1.17;;
63784;SDS011;49927;48.146;11.420;2022-09-03T12:57:29;1.70;;;1.00;;
63784;SDS011;49927;48.146;11.420;2022-09-03T12:59:59;1.17;;;1.05;;
63784;SDS011;49927;48.146;11.420;2022-09-03T13:02:31;1.30;;;1.15;;
63784;SDS011;49927;48.146;11.420;2022-09-03T13:05:02;2.35;;;1.02;;
63784;SDS011;49927;48.146;11.420;2022-09-03T13:07:29;2.38;;;1.42;;
63784;SDS011;49927;48.146;11.420;2022-09-03T13:09:59;1.50;;;1.40;;
63784;SDS011;49927;48.146;11.420;2022-09-03T13:12:27;1.10;;;1.00;;
63784;SDS011;49927;48.146;11.420;2022-09-03T13:14:54;2.85;;;1.48;;
63784;SDS011;49927;48.146;11.420;2022-09-03T13:23:08;1.95;;;1.33;;
63784;SDS011;49927;48.146;11.420;2022-09-03T13:25:44;1.58;;;1.35;;
63784;SDS011;49927;48.146;11.420;2022-09-03T13:28:18;2.03;;;1.50;;
63784;SDS011;49927;48.146;11.420;2022-09-03T13:30:51;1.63;;;1.52;;
63784;SDS011;49927;48.146;11.420;2022-09-03T13:33:21;2.30;;;1.40;;
63784;SDS011;49927;48.146;11.420;2022-09-03T13:35:50;1.60;;;1.50;;
63784;SDS011;49927;48.146;11.420;2022-09-03T13:38:20;2.00;;;1.50;;
63784;SDS011;49927;48.146;11.420;2022-09-03T13:40:51;2.60;;;1.30;;
63784;SDS011;49927;48.146;11.420;2022-09-03T13:43:20;1.60;;;1.50;;
63784;SDS011;49927;48.146;11.420;2022-09-03T13:45:52;2.17;;;1.77;;
63784;SDS011;49927;48.146;11.420;2022-09-03T13:48:23;1.70;;;1.60;;
63784;SDS011;49927;48.146;11.420;2022-09-03T13:50:50;2.25;;;2.05;;
63784;SDS011;49927;48.146;11.420;2022-09-03T13:53:18;1.45;;;1.35;;
63784;SDS011;49927;48.146;11.420;2022-09-03T13:55:50;1.92;;;1.80;;
63784;SDS011;49927;48.146;11.420;2022-09-03T13:58:18;2.00;;;1.80;;
63784;SDS011;49927;48.146;11.420;2022-09-03T14:00:47;1.77;;;1.67;;
63784;SDS011;49927;48.146;11.420;2022-09-03T14:03:17;1.63;;;1.52;;
63784;SDS011;49927;48.146;11.420;2022-09-03T14:05:59;3.10;;;1.80;;
63784;SDS011;49927;48.146;11.420;2022-09-03T14:08:29;11.02;;;3.70;;
63784;SDS011;49927;48.146;11.420;2022-09-03T14:10:59;8.15;;;3.60;;
63784;SDS011;49927;48.146;11.420;2022-09-03T14:13:45;6.57;;;3.00;;
63784;SDS011;49927;48.146;11.420;2022-09-03T14:16:23;11.88;;;4.15;;
63784;SDS011;49927;48.146;11.420;2022-09-03T14:18:53;9.13;;;3.97;;
63784;SDS011;49927;48.146;11.420;2022-09-03T14:21:21;5.00;;;2.90;;
63784;SDS011;49927;48.146;11.420;2022-09-03T14:23:50;8.13;;;3.03;;
63784;SDS011;49927;48.146;11.420;2022-09-03T14:26:21;4.80;;;3.28;;
63784;SDS011;49927;48.146;11.420;2022-09-03T14:28:56;4.63;;;2.63;;
63784;SDS011;49927;48.146;11.420;2022-09-03T14:31:25;4.03;;;2.85;;
63784;SDS011;49927;48.146;11.420;2022-09-03T14:33:59;5.32;;;2.88;;
63784;SDS011;49927;48.146;11.420;2022-09-03T14:36:30;3.28;;;2.38;;
63784;SDS011;49927;48.146;11.420;2022-09-03T14:39:02;5.68;;;2.45;;
63784;SDS011;49927;48.146;11.420;2022-09-03T14:44:43;4.10;;;2.58;;
63784;SDS011;49927;48.146;11.420;2022-09-03T14:47:42;5.60;;;2.53;;
63784;SDS011;49927;48.146;11.420;2022-09-03T14:50:36;6.60;;;3.05;;
63784;SDS011;49927;48.146;11.420;2022-09-03T14:53:20;6.60;;;2.83;;
63784;SDS011;49927;48.146;11.420;2022-09-03T14:56:08;5.18;;;2.80;;